Aurora, Colorado
Current Conditions -  °F | °C
As of 8:58 PM on Tuesday 21 Oct 2014 (Local Time) from KBKF Reporting Station
Broken Clouds Broken Clouds  
Wind Chill: 17°   Ceiling: 10000
Heat Index: 17°   Visibility: 10mi
Dew Point:   Wind: 8mph
Humidity: 44%   Direction: 350°N
Pressure: 29.97"   Gusts: NA
Location:  39.69°N, 104.86°W
Report Text: KBKF 220258Z 35007KT 10SM FEW060 BKN100 BKN200 17/04 A2997 RMK AO2A SLP087 T01670044 52011
Loading
Personal Weather Stations






























Interactive Weather Map
Tropical Storm Tracking
New forecast layout! Learn more

10-Day Weather Forecast

Advertisements
Track Severe Weather on mobile